createdAt,value
2023-03-11T12:28:23.914Z,96526.65
2023-03-11T12:33:33.505Z,96548.67
2023-03-11T12:38:41.426Z,96564.38
2023-03-11T12:44:11.010Z,96577.92
2023-03-11T12:49:25.356Z,96590.76
2023-03-11T12:54:34.455Z,96612.77
2023-03-11T13:00:08.086Z,96619.95
2023-03-11T13:05:21.316Z,96629.21
2023-03-11T13:10:40.017Z,96644.20
2023-03-11T13:15:47.216Z,96664.85
2023-03-11T13:20:59.678Z,96680.74
2023-03-11T13:26:31.130Z,96703.25
2023-03-11T13:31:44.008Z,96719.32
2023-03-11T13:36:59.490Z,96734.13
2023-03-11T13:42:16.071Z,96740.66
2023-03-11T13:47:23.971Z,96754.48
2023-03-11T13:52:34.092Z,96760.34
2023-03-11T13:57:41.302Z,96772.50
2023-03-11T14:02:54.803Z,96786.64
2023-03-11T14:08:15.052Z,96801.92
2023-03-11T14:13:22.700Z,96818.17
2023-03-11T14:18:31.518Z,96831.77
2023-03-11T14:23:42.540Z,96840.57
2023-03-11T14:28:51.234Z,96848.35
2023-03-11T14:34:04.845Z,96857.59
2023-03-11T14:39:26.154Z,96869.02
2023-03-11T14:44:35.070Z,96885.54
2023-03-11T14:49:42.535Z,96893.96
2023-03-11T14:54:50.753Z,96907.39
2023-03-11T14:59:58.932Z,96919.37
2023-03-11T15:05:11.383Z,96923.92
2023-03-11T15:10:18.946Z,96930.65
2023-03-11T15:15:28.118Z,96935.52
2023-03-11T15:20:37.126Z,96947.42
2023-03-11T15:25:50.930Z,96958.14
2023-03-11T15:31:11.582Z,96969.55
2023-03-11T15:36:35.389Z,96972.73
2023-03-11T15:41:42.809Z,96984.66
2023-03-11T15:46:50.083Z,96994.08
2023-03-11T15:51:59.552Z,97005.49
2023-03-11T15:57:07.688Z,97018.27
2023-03-11T16:02:22.722Z,97031.58
2023-03-11T16:07:39.604Z,97044.61
2023-03-11T16:12:47.956Z,97050.08
2023-03-11T16:17:56.181Z,97063.98
2023-03-11T16:23:03.500Z,97074.52
2023-03-11T16:28:13.222Z,97080.88
2023-03-11T16:33:20.716Z,97102.08
2023-03-11T16:38:28.166Z,97114.45
2023-03-11T16:43:35.485Z,97125.88
2023-03-11T16:48:42.908Z,97128.86
2023-03-11T16:53:50.514Z,97148.98
2023-03-11T16:58:57.865Z,97166.59
2023-03-11T17:04:05.381Z,97176.84
2023-03-11T17:09:12.798Z,97190.23
2023-03-11T17:14:20.057Z,97201.42
2023-03-11T17:19:27.290Z,97218.73
2023-03-11T17:24:34.460Z,97233.31
2023-03-11T17:29:41.876Z,97246.22
2023-03-11T17:34:49.143Z,97252.56
2023-03-11T17:39:56.598Z,97258.27
2023-03-11T17:45:03.994Z,97268.14
2023-03-11T17:50:12.480Z,97277.77
2023-03-11T17:55:20.319Z,97284.97
2023-03-11T18:00:27.914Z,97296.95
2023-03-11T18:05:37.255Z,97317.02
2023-03-11T18:10:50.912Z,97326.73
2023-03-11T18:16:01.996Z,97340.31
2023-03-11T18:21:10.452Z,97353.41
2023-03-11T18:26:19.176Z,97362.11
2023-03-11T18:31:27.346Z,97372.30
2023-03-11T18:36:35.514Z,97378.88
2023-03-11T18:41:43.188Z,97384.61
2023-03-11T18:46:50.392Z,97391.57
2023-03-11T18:51:57.532Z,97396.06
2023-03-11T18:57:04.689Z,97408.89
2023-03-11T19:02:12.682Z,97418.54
2023-03-11T19:07:20.096Z,97422.07
2023-03-11T19:12:30.047Z,97426.88
2023-03-11T19:17:36.958Z,97433.44
2023-03-11T19:22:44.229Z,97439.87
2023-03-11T19:27:51.931Z,97450.69
2023-03-11T19:32:59.749Z,97457.84
2023-03-11T19:38:07.268Z,97459.51
2023-03-11T19:43:15.274Z,97469.75
2023-03-11T19:48:22.586Z,97475.07
2023-03-11T19:53:30.280Z,97478.84
2023-03-11T19:58:38.045Z,97486.23
2023-03-11T20:03:45.629Z,97492.83
2023-03-11T20:08:53.106Z,97496.58
2023-03-11T20:14:00.360Z,97499.56
2023-03-11T20:19:08.178Z,97499.95
2023-03-11T20:24:15.345Z,97499.36
2023-03-11T20:29:22.931Z,97501.33
2023-03-11T20:34:30.404Z,97506.58
2023-03-11T20:39:37.769Z,97511.27
2023-03-11T20:44:45.154Z,97519.35
2023-03-11T20:49:52.428Z,97522.80
2023-03-11T20:55:00.096Z,97528.92
2023-03-11T21:00:11.789Z,97528.46
2023-03-11T21:05:19.691Z,97531.69
2023-03-11T21:10:27.145Z,97538.02
2023-03-11T21:15:34.715Z,97539.91
2023-03-11T21:20:42.650Z,97546.98
2023-03-11T21:25:50.131Z,97550.98
2023-03-11T21:31:04.183Z,97553.56
2023-03-11T21:36:12.233Z,97559.01
2023-03-11T21:41:21.068Z,97563.80
2023-03-11T21:46:29.420Z,97559.73
2023-03-11T21:51:37.092Z,97564.77
2023-03-11T21:56:44.441Z,97570.71
2023-03-11T22:01:51.769Z,97578.48
2023-03-11T22:06:59.260Z,97585.16
2023-03-11T22:12:07.117Z,97587.45
2023-03-11T22:17:14.461Z,97589.23
2023-03-11T22:22:21.831Z,97591.13
2023-03-11T22:27:29.042Z,97593.24
2023-03-11T22:32:36.693Z,97597.41
2023-03-11T22:37:44.715Z,97603.45
2023-03-11T22:42:52.333Z,97612.13
2023-03-11T22:47:59.702Z,97612.16
2023-03-11T22:53:07.104Z,97614.67
2023-03-11T22:58:14.739Z,97614.40
2023-03-11T23:03:22.281Z,97614.86
2023-03-11T23:08:29.466Z,97620.76
2023-03-11T23:13:36.817Z,97619.13
2023-03-11T23:18:44.741Z,97620.28
2023-03-11T23:23:51.988Z,97613.63
2023-03-11T23:28:59.231Z,97616.45
2023-03-11T23:34:06.956Z,97623.57
2023-03-11T23:39:14.221Z,97628.49
2023-03-11T23:44:21.318Z,97637.96
2023-03-11T23:49:28.661Z,97642.52
2023-03-11T23:54:35.783Z,97644.18
2023-03-11T23:59:42.939Z,97646.39
